CDT,Max TemperatureF,Mean TemperatureF,Min TemperatureF,Max Dew PointF,MeanDew PointF,Min DewpointF,Max Humidity, Mean Humidity, Min Humidity, Max Sea Level PressureIn, Mean Sea Level PressureIn, Min Sea Level PressureIn, Max VisibilityMiles, Mean VisibilityMiles, Min VisibilityMiles, Max Wind SpeedMPH, Mean Wind SpeedMPH, Max Gust SpeedMPH,PrecipitationIn, CloudCover, Events, WindDirDegrees
2012-5-1,67,49,32,50,42,32,100,74,44,29.96,29.88,29.78,10,8,0,17,5,25,0.00,3,Fog,153
2012-5-2,78,66,54,61,55,51,99,73,42,29.84,29.76,29.59,10,8,2,17,8,26,0.56,4,Rain-Thunderstorm,210
2012-5-3,73,66,60,63,60,57,99,86,64,29.90,29.83,29.78,10,9,2,15,6,23,0.98,5,Rain-Thunderstorm,188
2012-5-4,65,59,53,56,48,42,89,69,52,30.06,30.01,29.90,10,10,10,18,10,23,0.01,6,Rain,75
2012-5-5,62,53,44,52,47,42,98,84,60,30.14,30.06,29.84,10,9,2,30,10,26,0.30,8,Rain,89
2012-5-6,52,48,43,52,46,41,100,93,75,30.07,30.00,29.93,10,6,0,22,8,29,0.55,8,Fog-Rain-Thunderstorm,72
2012-5-7,67,54,43,50,45,42,100,76,43,29.96,29.89,29.83,10,7,0,13,4,21,0.00,5,Fog,295
2012-5-8,62,53,45,47,43,36,95,71,40,29.88,29.84,29.81,10,10,7,13,5,18,0.04,4,Rain-Thunderstorm,274
2012-5-9,61,50,38,46,37,31,95,63,33,29.98,29.93,29.88,10,10,10,16,7,24,0.01,3,Rain,338
2012-5-10,68,48,30,39,32,28,97,54,23,30.01,29.97,29.93,10,10,10,10,2,,0.00,0,,223
2012-5-11,75,60,46,54,44,33,82,54,42,30.15,30.00,29.94,10,10,10,20,8,30,0.00,3,,206
2012-5-12,65,54,42,47,36,25,82,52,22,30.31,30.26,30.16,10,10,10,14,6,21,0.00,2,,339
2012-5-13,70,52,34,40,34,27,94,53,23,30.28,30.20,30.08,10,10,10,12,2,17,0.00,0,,269
2012-5-14,78,58,38,42,39,35,91,52,23,30.08,30.00,29.90,10,10,10,14,3,21,0.00,0,,239
2012-5-15,73,60,48,47,40,33,65,44,24,30.03,29.86,29.80,10,10,10,15,8,23,0.00,1,,267
2012-5-16,64,50,35,39,33,27,95,57,26,30.14,30.09,30.04,10,10,10,12,3,16,0.00,0,,307
2012-5-17,71,54,37,40,37,35,94,55,30,30.16,30.06,29.96,10,10,10,18,5,25,0.00,1,,151
2012-5-18,84,68,51,46,42,38,62,42,22,29.98,29.94,29.89,10,10,10,17,9,24,0.00,0,,183
2012-5-19,87,69,51,54,48,40,73,43,27,29.99,29.95,29.89,10,10,10,21,9,29,0.00,1,,179
2012-5-20,84,66,49,62,55,44,93,62,40,30.09,29.94,29.83,10,10,4,24,10,36,0.00,3,Rain,207
2012-5-21,69,56,42,43,38,33,93,55,26,30.21,30.17,30.10,10,10,10,17,8,24,0.00,1,,332
2012-5-22,72,53,34,42,36,33,94,52,25,30.15,30.02,29.89,10,10,10,12,3,17,0.00,0,,149
2012-5-23,77,63,49,45,41,38,65,43,27,29.89,29.77,29.64,10,10,10,21,9,28,0.00,0,,157
2012-5-24,86,72,59,63,51,40,97,52,28,29.66,29.55,29.37,10,9,2,31,12,47,0.37,4,Rain-Thunderstorm,179
2012-5-25,70,60,50,57,49,44,92,65,42,30.15,29.96,29.63,10,10,10,17,9,26,0.38,2,,272
2012-5-26,65,60,56,60,57,53,99,91,74,30.22,30.13,29.98,10,9,4,16,4,25,0.74,7,Rain-Thunderstorm,110
2012-5-27,80,68,56,69,62,55,97,78,60,30.04,29.88,29.73,10,10,7,16,11,23,0.00,2,Thunderstorm,119
2012-5-28,80,72,63,66,60,52,88,66,53,29.76,29.68,29.63,10,10,4,21,9,30,0.28,2,Rain-Thunderstorm,221
2012-5-29,63,58,52,52,45,40,86,60,43,29.84,29.78,29.74,10,10,10,21,10,32,0.00,4,,259
2012-5-30,57,52,46,46,40,36,86,66,49,30.00,29.93,29.84,10,10,4,13,7,18,0.00,6,Rain,323
2012-5-31,58,50,42,44,39,33,94,67,40,30.07,30.02,29.97,10,10,10,10,5,17,0.00,5,,71